Time;durP1;ratioP1;P1;durP2;ratioP2;P2;SDS_P1;SDS_P2;PMS_P1;PMS_P2;Temp;Humidity;BMP_temperature;BMP_pressure;BME280_temperature;BME280_humidity;BME280_pressure;Samples;Min_cycle;Max_cycle;Signal;HPM_P1;HPM_P2
2022/08/07 00:00:01;;;;;;;6.63;5.00;;;;;;;28.16;100.00;100862.00;2069580;28;20710;-64
2022/08/07 00:01:02;;;;;;;6.13;5.03;;;;;;;28.47;100.00;100926.66;2067390;28;20182;-65
2022/08/07 00:02:02;;;;;;;6.87;5.30;;;;;;;28.18;100.00;100861.41;2071517;28;20185;-64
2022/08/07 00:03:03;;;;;;;7.33;4.93;;;;;;;28.55;100.00;100918.22;2065363;28;20191;-65
2022/08/07 00:04:05;;;;;;;5.33;4.90;;;;;;;28.38;100.00;100895.75;2073542;28;20232;-64
2022/08/07 00:05:06;;;;;;;5.77;4.90;;;;;;;28.56;100.00;100923.34;2065639;28;20218;-64
2022/08/07 00:06:06;;;;;;;8.77;5.10;;;;;;;28.54;100.00;100920.28;2070907;28;20208;-64
2022/08/07 00:07:07;;;;;;;8.97;5.03;;;;;;;28.54;100.00;100926.00;2066965;28;20226;-64
2022/08/07 00:08:08;;;;;;;6.03;5.40;;;;;;;28.33;100.00;100908.00;2056451;28;20234;-65
2022/08/07 00:09:08;;;;;;;5.50;4.80;;;;;;;28.52;100.00;100922.94;2059342;28;20313;-65
2022/08/07 00:10:09;;;;;;;10.37;5.00;;;;;;;28.45;100.00;100923.59;2071356;28;20178;-64
2022/08/07 00:11:10;;;;;;;8.83;5.10;;;;;;;28.51;100.00;100923.47;2065585;28;20170;-65
2022/08/07 00:12:10;;;;;;;5.93;5.07;;;;;;;28.29;100.00;100895.38;2073331;28;20185;-64
2022/08/07 00:13:11;;;;;;;9.13;5.50;;;;;;;28.54;100.00;100931.69;2065332;28;20253;-64
2022/08/07 00:14:11;;;;;;;6.47;5.00;;;;;;;28.54;100.00;100937.41;2065086;28;20210;-64
2022/08/07 00:15:12;;;;;;;7.10;5.10;;;;;;;28.52;100.00;100933.56;2064574;28;20205;-64
2022/08/07 00:16:13;;;;;;;6.00;5.27;;;;;;;28.52;100.00;100940.03;2069156;28;20189;-65
2022/08/07 00:17:13;;;;;;;7.87;5.13;;;;;;;28.41;100.00;100920.28;2069188;28;20182;-64
2022/08/07 00:18:16;;;;;;;6.07;5.10;;;;;;;28.53;100.00;100941.56;2064943;28;20710;-64
2022/08/07 00:19:16;;;;;;;6.20;5.30;;;;;;;28.55;100.00;100944.63;2065006;28;20576;-65
2022/08/07 00:20:16;;;;;;;8.47;5.37;;;;;;;28.55;100.00;100938.94;2065296;28;20234;-64
2022/08/07 00:21:17;;;;;;;6.03;4.77;;;;;;;28.60;100.00;100945.81;2072884;28;20613;-64
2022/08/07 00:22:18;;;;;;;6.63;5.20;;;;;;;28.28;100.00;100903.19;2066056;28;20726;-64
2022/08/07 00:23:19;;;;;;;7.33;4.90;;;;;;;28.13;100.00;100868.78;2065363;28;20205;-65
2022/08/07 00:24:19;;;;;;;6.97;4.80;;;;;;;28.55;100.00;100944.63;2068961;28;20694;-64
2022/08/07 00:25:20;;;;;;;6.93;5.13;;;;;;;28.54;100.00;100940.25;2072952;28;20190;-65
2022/08/07 00:26:20;;;;;;;7.83;4.73;;;;;;;28.47;100.00;100937.28;2070354;28;20239;-65
2022/08/07 00:27:21;;;;;;;7.73;5.00;;;;;;;28.54;100.00;100940.25;2064097;28;20569;-65
2022/08/07 00:28:22;;;;;;;6.30;5.00;;;;;;;27.92;100.00;100841.47;2071723;28;20184;-64
2022/08/07 00:29:25;;;;;;;5.97;4.60;;;;;;;28.57;100.00;100952.63;2065187;28;20252;-65
2022/08/07 00:30:26;;;;;;;5.90;4.67;;;;;;;28.60;100.00;100937.28;2064895;28;20193;-64
2022/08/07 00:31:26;;;;;;;5.33;4.83;;;;;;;28.64;100.00;100938.50;2065844;28;20202;-65
2022/08/07 00:32:27;;;;;;;6.80;4.50;;;;;;;28.01;100.00;100861.78;2064911;28;20556;-64
2022/08/07 00:33:27;;;;;;;5.63;4.70;;;;;;;28.51;100.00;100946.28;2064844;28;20253;-65
2022/08/07 00:34:29;;;;;;;7.43;4.93;;;;;;;28.22;100.00;100916.78;2064383;28;20202;-64
2022/08/07 00:35:29;;;;;;;9.10;4.97;;;;;;;28.46;100.00;100952.88;2064802;28;20189;-64
2022/08/07 00:36:30;;;;;;;8.90;4.90;;;;;;;27.84;100.00;100889.03;2064309;28;20313;-64
2022/08/07 00:37:30;;;;;;;5.33;4.83;;;;;;;28.31;100.00;100952.63;2064217;28;20186;-64
2022/08/07 00:38:32;;;;;;;7.10;5.17;;;;;;;28.35;100.00;100961.63;2071893;28;20653;-64
2022/08/07 00:39:36;;;;;;;7.77;5.30;;;;;;;28.32;100.00;100939.91;2065993;28;20202;-65
2022/08/07 00:40:37;;;;;;;10.83;6.07;;;;;;;27.52;100.00;100825.63;2070977;28;20228;-64
2022/08/07 00:41:38;;;;;;;13.17;5.93;;;;;;;27.79;100.00;100893.50;2077859;28;20188;-64
2022/08/07 00:42:40;;;;;;;8.60;6.30;;;;;;;28.16;100.00;100943.84;2072968;28;20229;-64
2022/08/07 00:43:41;;;;;;;8.03;6.17;;;;;;;28.27;100.00;100967.22;2064961;28;20178;-65
2022/08/07 00:44:42;;;;;;;8.73;6.47;;;;;;;27.80;100.00;100886.47;2066381;28;20185;-65
2022/08/07 00:45:43;;;;;;;7.53;6.70;;;;;;;27.62;100.00;100878.00;2072332;28;20188;-65
2022/08/07 00:46:44;;;;;;;10.23;6.90;;;;;;;27.85;100.00;100916.19;2072702;28;20170;-65
2022/08/07 00:47:44;;;;;;;12.00;6.90;;;;;;;27.65;100.00;100880.53;2073053;28;20218;-65
2022/08/07 00:48:45;;;;;;;10.67;6.97;;;;;;;28.17;100.00;100959.63;2071261;28;20197;-65
2022/08/07 00:49:45;;;;;;;11.43;7.20;;;;;;;28.16;100.00;100961.72;2066912;28;20198;-65
2022/08/07 00:50:46;;;;;;;8.63;6.67;;;;;;;28.13;100.00;100967.72;2069245;28;20190;-64
2022/08/07 00:51:46;;;;;;;8.53;6.93;;;;;;;28.03;100.00;100978.00;2069278;28;20198;-65
2022/08/07 00:52:47;;;;;;;10.63;7.30;;;;;;;28.05;100.00;100972.53;2064628;28;20664;-65
2022/08/07 00:53:47;;;;;;;9.90;7.00;;;;;;;27.58;100.00;100911.72;2064799;28;20182;-64
2022/08/07 00:54:48;;;;;;;10.27;7.00;;;;;;;27.97;100.00;100980.19;2064704;28;20186;-65
2022/08/07 00:55:49;;;;;;;8.70;6.93;;;;;;;27.82;100.00;100940.06;2064498;28;20189;-64
2022/08/07 00:56:50;;;;;;;8.63;6.47;;;;;;;28.02;100.00;100974.41;2071644;28;20186;-64
2022/08/07 00:57:51;;;;;;;7.43;6.63;;;;;;;28.04;100.00;100968.91;2066734;28;20263;-64
2022/08/07 00:58:51;;;;;;;6.93;6.00;;;;;;;27.57;100.00;100908.09;2069877;28;20683;-64
2022/08/07 00:59:53;;;;;;;7.57;6.40;;;;;;;27.91;100.00;100953.88;2068186;28;20193;-64
2022/08/07 01:00:53;;;;;;;8.13;6.03;;;;;;;27.99;100.00;100980.44;2064722;28;20248;-64
2022/08/07 01:01:54;;;;;;;9.60;6.87;;;;;;;27.60;100.00;100924.13;2064747;28;20182;-65
2022/08/07 01:02:54;;;;;;;9.37;6.50;;;;;;;27.99;100.00;100974.72;2064615;28;20187;-64
2022/08/07 01:03:55;;;;;;;10.33;6.67;;;;;;;27.90;100.00;100972.28;2064850;28;20190;-64
2022/08/07 01:04:58;;;;;;;8.37;6.50;;;;;;;27.93;100.00;100989.06;2064380;28;20193;-64
2022/08/07 01:06:00;;;;;;;8.13;6.70;;;;;;;27.91;100.00;100979.53;2062373;28;20196;-64
2022/08/07 01:07:00;;;;;;;8.67;7.10;;;;;;;27.90;100.00;100984.44;2063389;28;20222;-64
2022/08/07 01:08:01;;;;;;;7.97;6.80;;;;;;;27.85;100.00;100981.69;2073846;28;20196;-64
2022/08/07 01:09:02;;;;;;;11.03;6.60;;;;;;;27.36;100.00;100901.47;2073908;28;20201;-64
2022/08/07 01:10:03;;;;;;;12.40;6.60;;;;;;;27.86;100.00;100977.53;2064159;28;20665;-64
2022/08/07 01:11:04;;;;;;;8.77;6.80;;;;;;;27.77;100.00;100977.91;2064454;28;20265;-65
2022/08/07 01:12:05;;;;;;;11.60;6.23;;;;;;;27.86;100.00;100981.16;2065045;28;20687;-65
2022/08/07 01:13:05;;;;;;;9.17;6.83;;;;;;;27.91;100.00;100985.22;2064121;28;20636;-64
2022/08/07 01:14:07;;;;;;;8.53;6.63;;;;;;;27.87;100.00;100985.53;2063911;28;20253;-64
2022/08/07 01:15:08;;;;;;;7.20;6.40;;;;;;;27.81;100.00;100975.56;2066067;28;20277;-64
2022/08/07 01:16:09;;;;;;;12.03;7.00;;;;;;;27.83;100.00;100985.09;2069658;28;20181;-65
2022/08/07 01:17:10;;;;;;;7.60;6.47;;;;;;;27.75;100.00;100992.69;2067875;28;20190;-65
2022/08/07 01:18:10;;;;;;;9.57;6.37;;;;;;;26.87;100.00;100877.38;2067737;28;20201;-65
2022/08/07 01:19:11;;;;;;;7.93;6.70;;;;;;;27.65;100.00;100997.28;2072704;28;20184;-65
2022/08/07 01:20:13;;;;;;;7.60;6.80;;;;;;;27.65;100.00;100999.34;2073455;28;20656;-64
2022/08/07 01:21:16;;;;;;;8.87;7.00;;;;;;;27.63;100.00;100999.88;2079945;28;20329;-65
2022/08/07 01:22:17;;;;;;;9.63;6.87;;;;;;;27.34;100.00;100972.38;2064564;28;20700;-65
2022/08/07 01:23:18;;;;;;;7.20;6.50;;;;;;;27.48;100.00;101005.28;2055815;28;20757;-65
2022/08/07 01:24:20;;;;;;;8.93;6.20;;;;;;;27.49;100.00;101011.75;2062165;28;20182;-65
2022/08/07 01:25:21;;;;;;;9.37;7.50;;;;;;;27.18;100.00;100947.78;2061172;28;20194;-64
2022/08/07 01:26:22;;;;;;;11.60;6.67;;;;;;;27.26;100.00;100970.69;2063823;28;20268;-65
2022/08/07 01:27:22;;;;;;;9.73;7.03;;;;;;;27.08;100.00;100951.56;2070336;28;20302;-64
2022/08/07 01:28:23;;;;;;;10.27;7.13;;;;;;;27.45;100.00;101017.78;2064847;28;20186;-64
2022/08/07 01:29:26;;;;;;;7.30;6.60;;;;;;;27.14;100.00;100970.09;2062788;28;20201;-64
2022/08/07 01:30:28;;;;;;;10.10;7.00;;;;;;;27.43;100.00;101020.38;2064607;28;20208;-64
2022/08/07 01:31:32;;;;;;;12.93;7.37;;;;;;;27.40;100.00;101015.78;2064262;28;20274;-66
2022/08/07 01:32:33;;;;;;;9.70;6.43;;;;;;;27.01;100.00;100958.63;2064548;28;20209;-64
2022/08/07 01:33:34;;;;;;;10.20;6.30;;;;;;;27.33;100.00;101013.53;2071459;28;20651;-64
2022/08/07 01:34:35;;;;;;;9.87;7.00;;;;;;;27.37;100.00;101018.91;2072571;28;20716;-65
2022/08/07 01:35:36;;;;;;;8.97;6.87;;;;;;;27.38;100.00;101012.69;2068020;28;20201;-65
2022/08/07 01:36:36;;;;;;;11.57;7.33;;;;;;;27.40;100.00;101017.84;2064031;28;20257;-65
2022/08/07 01:37:55;;;;;;;9.50;6.90;;;;;;;27.41;100.00;101011.63;2064330;28;20248;-65
2022/08/07 01:38:56;;;;;;;11.50;7.00;;;;;;;27.46;100.00;101013.63;2064443;28;20221;-64
2022/08/07 01:40:00;;;;;;;7.93;6.90;;;;;;;26.99;100.00;100934.88;2064527;28;20186;-64
2022/08/07 01:41:03;;;;;;;10.40;6.93;;;;;;;27.49;100.00;101020.31;2068687;28;20212;-65
2022/08/07 01:42:04;;;;;;;12.47;7.30;;;;;;;27.50;100.00;101019.00;2077671;28;20184;-64
2022/08/07 01:43:06;;;;;;;8.07;6.73;;;;;;;27.49;100.00;101012.53;2064101;28;20188;-64
2022/08/07 01:44:06;;;;;;;9.77;6.90;;;;;;;27.02;100.00;100942.34;2064646;28;20214;-64
2022/08/07 01:45:08;;;;;;;10.67;6.77;;;;;;;26.84;100.00;100909.75;2064351;28;20245;-65
2022/08/07 01:46:09;;;;;;;11.20;6.53;;;;;;;27.54;100.00;101013.75;2064024;28;20195;-64
2022/08/07 01:47:09;;;;;;;7.33;6.63;;;;;;;27.54;100.00;101020.22;2069508;28;20221;-64
2022/08/07 01:48:10;;;;;;;9.10;6.80;;;;;;;27.38;100.00;100978.53;2068316;28;20659;-64
2022/08/07 01:49:11;;;;;;;12.87;6.90;;;;;;;27.24;100.00;100976.97;2064375;28;20202;-64
2022/08/07 01:50:11;;;;;;;8.73;6.50;;;;;;;27.56;100.00;101017.59;2067801;28;20186;-65
2022/08/07 01:51:18;;;;;;;10.50;7.70;;;;;;;27.28;100.00;100988.78;2073230;28;20192;-65
2022/08/07 01:52:22;;;;;;;9.57;6.97;;;;;;;27.50;100.00;101014.09;2065969;28;20577;-64
2022/08/07 01:53:26;;;;;;;11.03;7.23;;;;;;;27.53;100.00;101021.53;2065724;28;20206;-65
2022/08/07 01:54:28;;;;;;;12.20;7.30;;;;;;;26.55;100.00;100873.69;2066069;28;20671;-64
2022/08/07 01:55:35;;;;;;;10.30;7.20;;;;;;;27.50;100.00;101021.84;2073829;28;20221;-65
2022/08/07 01:56:45;;;;;;;13.53;7.13;;;;;;;27.52;100.00;101022.06;2073863;28;20652;-64
2022/08/07 01:57:46;;;;;;;8.20;6.93;;;;;;;27.53;100.00;101021.53;2074071;28;20212;-64
2022/08/07 01:58:53;;;;;;;9.77;7.53;;;;;;;27.51;100.00;101029.06;2067870;28;20659;-65
2022/08/07 02:00:00;;;;;;;8.83;7.10;;;;;;;27.48;100.00;101033.00;2072208;28;20198;-64
2022/08/07 02:01:06;;;;;;;8.90;7.07;;;;;;;27.46;100.00;101035.59;2068466;28;20248;-65
2022/08/07 02:02:14;;;;;;;9.40;7.07;;;;;;;27.05;100.00;100969.69;2057121;28;20407;-64
2022/08/07 02:03:19;;;;;;;9.77;7.00;;;;;;;27.45;100.00;101039.78;2058233;28;20223;-64
2022/08/07 02:04:29;;;;;;;9.90;7.27;;;;;;;27.40;100.00;101037.78;2065328;28;20198;-64
2022/08/07 02:05:35;;;;;;;9.67;7.60;;;;;;;27.26;100.00;101021.91;2066244;28;20182;-64
2022/08/07 02:06:38;;;;;;;10.37;7.20;;;;;;;27.37;100.00;101041.69;2065792;28;20197;-64
2022/08/07 02:07:45;;;;;;;9.73;7.07;;;;;;;27.32;100.00;101040.47;2070006;28;20186;-65
2022/08/07 02:08:48;;;;;;;10.63;7.50;;;;;;;27.34;100.00;101034.25;2070710;28;20205;-65
2022/08/07 02:09:51;;;;;;;14.10;7.77;;;;;;;26.81;100.00;100972.63;2060102;28;20190;-64
2022/08/07 02:10:57;;;;;;;7.80;7.00;;;;;;;26.90;100.00;100981.53;2065629;28;20183;-65
2022/08/07 02:12:15;;;;;;;8.50;7.07;;;;;;;27.31;100.00;101044.63;2074067;28;20205;-64
2022/08/07 02:13:17;;;;;;;9.23;7.20;;;;;;;27.05;100.00;101018.03;2071432;28;20618;-65
2022/08/07 02:14:19;;;;;;;7.87;6.70;;;;;;;27.18;100.00;101040.94;2064924;28;20675;-64
2022/08/07 02:15:23;;;;;;;9.23;6.97;;;;;;;27.18;100.00;101049.47;2067133;28;20182;-64
2022/08/07 02:16:25;;;;;;;9.93;7.03;;;;;;;27.16;100.00;101047.13;2073297;28;20186;-64
2022/08/07 02:17:26;;;;;;;10.13;7.20;;;;;;;27.18;100.00;101046.63;2065661;28;20201;-64
2022/08/07 02:18:32;;;;;;;8.50;7.17;;;;;;;27.18;100.00;101047.38;2065909;28;20196;-64
2022/08/07 02:19:33;;;;;;;7.87;6.83;;;;;;;26.83;100.00;100995.59;2065739;28;20697;-64
2022/08/07 02:20:33;;;;;;;11.70;7.30;;;;;;;26.97;100.00;101014.28;2072069;28;20193;-64
2022/08/07 02:21:38;;;;;;;8.33;7.17;;;;;;;26.48;100.00;100939.66;2069038;28;20209;-64
2022/08/07 02:22:40;;;;;;;8.40;6.77;;;;;;;26.76;100.00;100979.91;2065991;28;20186;-64
2022/08/07 02:23:42;;;;;;;10.10;7.33;;;;;;;27.18;100.00;101049.47;2063706;28;20715;-65
2022/08/07 02:24:44;;;;;;;11.83;7.23;;;;;;;27.18;100.00;101047.38;2070159;28;20182;-65
2022/08/07 02:25:46;;;;;;;10.17;7.43;;;;;;;27.13;100.00;101041.75;2071913;28;20276;-65
2022/08/07 02:26:49;;;;;;;11.60;7.20;;;;;;;26.77;100.00;100992.81;2065521;28;20605;-64
2022/08/07 02:27:51;;;;;;;13.57;8.13;;;;;;;27.19;100.00;101056.69;2068642;28;20216;-64
2022/08/07 02:28:52;;;;;;;16.70;8.53;;;;;;;27.17;100.00;101054.38;2066086;28;20193;-64
2022/08/07 02:29:54;;;;;;;14.40;8.00;;;;;;;27.16;100.00;101049.97;2065865;28;20197;-64
2022/08/07 02:30:57;;;;;;;12.70;7.80;;;;;;;26.89;100.00;101022.66;2078124;28;20200;-64
2022/08/07 02:32:00;;;;;;;12.37;8.27;;;;;;;27.02;100.00;101054.03;2071022;28;20190;-64
2022/08/07 02:33:03;;;;;;;14.33;7.83;;;;;;;27.08;100.00;101053.97;2065775;28;20731;-64
2022/08/07 02:34:05;;;;;;;12.93;7.50;;;;;;;25.67;100.00;100843.44;2065686;28;20214;-64
2022/08/07 02:35:07;;;;;;;12.27;7.43;;;;;;;27.06;100.00;101051.66;2068000;28;20212;-64
2022/08/07 02:36:08;;;;;;;14.90;8.07;;;;;;;26.79;100.00;101012.97;2073071;28;20257;-64
2022/08/07 02:37:11;;;;;;;16.67;8.80;;;;;;;26.89;100.00;101036.88;2072990;28;20177;-65
2022/08/07 02:38:14;;;;;;;11.73;7.83;;;;;;;26.97;100.00;101057.69;2065910;28;20623;-64
2022/08/07 02:39:16;;;;;;;8.97;7.83;;;;;;;26.88;100.00;101060.94;2065976;28;20186;-64
2022/08/07 02:40:17;;;;;;;13.93;8.10;;;;;;;26.77;100.00;101061.03;2072939;28;20182;-64
2022/08/07 02:41:18;;;;;;;9.83;7.80;;;;;;;26.65;100.00;101067.38;2067666;28;20565;-65
2022/08/07 02:42:19;;;;;;;13.93;8.03;;;;;;;26.51;100.00;101054.34;2065543;28;20273;-65
2022/08/07 02:43:20;;;;;;;12.47;7.83;;;;;;;26.43;100.00;101053.38;2065809;28;20726;-65
2022/08/07 02:44:23;;;;;;;11.67;7.43;;;;;;;26.52;100.00;101065.16;2068539;28;20217;-65
2022/08/07 02:45:26;;;;;;;11.90;7.57;;;;;;;26.51;100.00;101062.88;2071503;28;20260;-64
2022/08/07 02:46:30;;;;;;;8.30;7.33;;;;;;;26.38;100.00;101048.53;2066153;28;20226;-64
2022/08/07 02:47:31;;;;;;;11.33;8.10;;;;;;;26.43;100.00;101064.75;2072462;28;20209;-64
2022/08/07 02:48:32;;;;;;;8.60;7.80;;;;;;;26.06;100.00;101008.53;2069595;28;20174;-64
2022/08/07 02:49:32;;;;;;;10.20;7.50;;;;;;;26.43;100.00;101064.75;2073767;28;20197;-64
2022/08/07 02:50:37;;;;;;;7.70;6.90;;;;;;;26.35;100.00;101070.25;2073712;28;20200;-64
2022/08/07 02:51:39;;;;;;;8.97;7.50;;;;;;;26.35;100.00;101067.41;2067499;28;20218;-64
2022/08/07 02:52:43;;;;;;;10.17;7.50;;;;;;;26.32;100.00;101073.38;2065595;28;20683;-64
2022/08/07 02:53:49;;;;;;;8.93;7.40;;;;;;;26.14;100.00;101054.94;2065713;28;20190;-64
2022/08/07 02:54:52;;;;;;;8.57;7.77;;;;;;;26.22;100.00;101067.28;2060893;28;20292;-64
2022/08/07 02:55:55;;;;;;;8.33;7.43;;;;;;;26.10;100.00;101059.38;2061455;28;20190;-64
2022/08/07 02:57:00;;;;;;;10.17;7.43;;;;;;;25.73;100.00;101019.38;2064343;28;20185;-64
2022/08/07 02:58:05;;;;;;;10.37;7.83;;;;;;;26.09;100.00;101069.19;2067673;28;20193;-64
2022/08/07 02:59:15;;;;;;;8.67;7.60;;;;;;;26.08;100.00;101070.50;2072463;28;20233;-64
2022/08/07 03:00:17;;;;;;;8.80;7.90;;;;;;;25.81;100.00;101035.31;2066991;28;20167;-64
2022/08/07 03:01:20;;;;;;;8.77;7.87;;;;;;;25.43;100.00;100978.84;2072601;28;20182;-64
2022/08/07 03:02:21;;;;;;;11.07;7.73;;;;;;;25.51;100.00;100994.00;2065619;28;20182;-64
2022/08/07 03:03:25;;;;;;;8.47;7.60;;;;;;;25.63;100.00;101032.34;2065800;28;20266;-64
2022/08/07 03:04:27;;;;;;;9.30;7.73;;;;;;;25.51;100.00;101003.28;2065371;28;20201;-64
2022/08/07 03:05:28;;;;;;;9.90;7.70;;;;;;;25.96;100.00;101092.56;2063368;28;20196;-64
2022/08/07 03:06:29;;;;;;;11.33;7.70;;;;;;;25.93;100.00;101093.59;2064475;28;20192;-64
2022/08/07 03:07:31;;;;;;;12.10;7.77;;;;;;;25.89;100.00;101086.63;2067782;28;20600;-64
2022/08/07 03:08:32;;;;;;;9.40;8.00;;;;;;;25.83;100.00;101086.66;2069044;28;20194;-64
2022/08/07 03:09:34;;;;;;;12.57;7.50;;;;;;;25.47;100.00;101039.69;2073655;28;20260;-64
2022/08/07 03:10:36;;;;;;;11.80;7.63;;;;;;;25.66;100.00;101085.22;2073234;28;20558;-64
2022/08/07 03:11:37;;;;;;;9.23;7.33;;;;;;;25.63;100.00;101077.75;2072936;28;20170;-65
2022/08/07 03:12:39;;;;;;;11.40;8.23;;;;;;;25.79;100.00;101097.53;2065757;28;20182;-64
2022/08/07 03:13:41;;;;;;;9.63;7.43;;;;;;;25.14;100.00;101005.81;2073698;28;20446;-64
2022/08/07 03:14:43;;;;;;;20.57;8.00;;;;;;;25.54;100.00;101073.16;2066189;28;20193;-65
2022/08/07 03:15:44;;;;;;;9.40;8.13;;;;;;;25.47;100.00;101068.06;2056206;28;20760;-64
2022/08/07 03:16:45;;;;;;;9.83;7.93;;;;;;;25.15;100.00;101023.59;2061502;28;20190;-64
2022/08/07 03:17:46;;;;;;;9.37;8.13;;;;;;;25.34;100.00;101050.09;2068900;28;20194;-64
2022/08/07 03:18:47;;;;;;;14.30;8.63;;;;;;;25.65;100.00;101092.97;2068285;28;20268;-64
2022/08/07 03:19:49;;;;;;;9.73;8.73;;;;;;;25.41;100.00;101058.81;2071608;28;20182;-64
2022/08/07 03:20:51;;;;;;;14.77;8.60;;;;;;;25.68;100.00;101102.50;2065391;28;20269;-65
2022/08/07 03:21:52;;;;;;;11.03;7.90;;;;;;;25.63;100.00;101106.13;2065747;28;20182;-64
2022/08/07 03:22:53;;;;;;;11.23;8.90;;;;;;;25.55;100.00;101108.78;2065684;28;20644;-65
2022/08/07 03:23:56;;;;;;;11.53;9.00;;;;;;;25.47;100.00;101107.00;2065600;28;20201;-64
2022/08/07 03:24:58;;;;;;;11.67;9.20;;;;;;;25.42;100.00;101111.44;2065171;28;20222;-64
2022/08/07 03:26:01;;;;;;;11.63;9.47;;;;;;;25.35;100.00;101105.53;2065024;28;20194;-65
2022/08/07 03:27:05;;;;;;;10.83;9.10;;;;;;;25.36;100.00;101118.41;2064959;28;20210;-64
2022/08/07 03:28:11;;;;;;;13.37;9.03;;;;;;;24.98;100.00;101052.03;2070105;28;20193;-64
2022/08/07 03:29:13;;;;;;;13.87;9.83;;;;;;;25.38;100.00;101110.16;2069272;28;20182;-65
2022/08/07 03:30:14;;;;;;;15.80;9.80;;;;;;;25.29;100.00;101097.03;2065459;28;20202;-64
2022/08/07 03:31:18;;;;;;;15.20;9.47;;;;;;;25.39;100.00;101103.94;2069261;28;20181;-64
2022/08/07 03:32:23;;;;;;;11.90;8.50;;;;;;;25.40;100.00;101111.19;2065208;28;20270;-66
2022/08/07 03:33:24;;;;;;;12.03;9.23;;;;;;;25.18;100.00;101071.53;2065650;28;20237;-64
2022/08/07 03:34:26;;;;;;;15.00;9.23;;;;;;;25.42;100.00;101108.59;2065236;28;20232;-64
2022/08/07 03:35:29;;;;;;;13.80;8.93;;;;;;;24.97;100.00;101035.56;2065195;28;20245;-64
2022/08/07 03:36:31;;;;;;;11.30;8.83;;;;;;;25.45;100.00;101099.03;2071676;28;20234;-64
2022/08/07 03:37:35;;;;;;;12.10;8.73;;;;;;;25.48;100.00;101097.97;2066900;28;20186;-64
2022/08/07 03:38:38;;;;;;;15.33;9.13;;;;;;;25.18;100.00;101056.59;2065249;28;20226;-64
2022/08/07 03:39:39;;;;;;;9.77;8.50;;;;;;;25.45;100.00;101086.91;2064817;28;20217;-64
2022/08/07 03:40:40;;;;;;;11.17;8.50;;;;;;;25.09;100.00;101026.47;2064593;28;20678;-64
2022/08/07 03:41:42;;;;;;;10.47;8.53;;;;;;;25.21;100.00;101049.84;2064612;28;20198;-64
2022/08/07 03:42:43;;;;;;;11.17;8.97;;;;;;;25.63;100.00;101092.72;2065143;28;20182;-64
2022/08/07 03:43:44;;;;;;;11.83;8.70;;;;;;;24.88;100.00;100979.91;2065203;28;20273;-64
2022/08/07 03:44:45;;;;;;;12.67;9.03;;;;;;;25.60;100.00;101088.13;2065228;28;20186;-64
2022/08/07 03:45:46;;;;;;;14.23;8.80;;;;;;;25.59;100.00;101097.91;2056095;28;20182;-64
2022/08/07 03:46:47;;;;;;;10.40;8.60;;;;;;;25.25;100.00;101030.50;2062727;28;20672;-64
2022/08/07 03:47:48;;;;;;;10.03;8.43;;;;;;;25.52;100.00;101075.78;2067411;28;20230;-64
2022/08/07 03:48:50;;;;;;;14.30;8.77;;;;;;;25.11;100.00;101035.22;2066720;28;20198;-64
2022/08/07 03:49:51;;;;;;;10.70;8.07;;;;;;;25.43;100.00;101081.00;2064641;28;20190;-64
2022/08/07 03:50:52;;;;;;;18.23;9.50;;;;;;;24.98;100.00;100995.31;2065136;28;20645;-64
2022/08/07 03:51:55;;;;;;;21.57;9.53;;;;;;;25.71;100.00;101105.09;2065078;28;20556;-64
2022/08/07 03:52:58;;;;;;;27.93;9.47;;;;;;;25.75;100.00;101099.13;2066162;28;20273;-64
2022/08/07 03:53:59;;;;;;;23.43;9.43;;;;;;;25.73;100.00;101088.28;2073525;28;20174;-64
2022/08/07 03:55:00;;;;;;;26.57;9.00;;;;;;;25.85;100.00;101100.34;2065036;28;20193;-64
2022/08/07 03:56:01;;;;;;;16.70;8.53;;;;;;;25.32;100.00;101010.88;2064872;28;20483;-64
2022/08/07 03:57:03;;;;;;;16.50;8.57;;;;;;;25.38;100.00;101019.38;2064764;28;20194;-64
2022/08/07 03:58:04;;;;;;;18.30;8.37;;;;;;;25.49;100.00;101022.91;2070204;28;20194;-64
2022/08/07 03:59:05;;;;;;;12.80;8.33;;;;;;;25.88;100.00;101088.69;2069325;28;20205;-64
2022/08/07 04:00:07;;;;;;;11.67;8.60;;;;;;;25.95;100.00;101104.44;2064945;28;20186;-64
2022/08/07 04:01:09;;;;;;;13.70;8.20;;;;;;;25.88;100.00;101085.06;2066327;28;20182;-64
2022/08/07 04:02:10;;;;;;;11.90;8.47;;;;;;;25.97;100.00;101099.75;2073219;28;20182;-64
2022/08/07 04:03:10;;;;;;;13.07;8.33;;;;;;;25.99;100.00;101087.88;2073411;28;20182;-64
2022/08/07 04:04:14;;;;;;;12.63;8.33;;;;;;;25.96;100.00;101095.38;2081325;28;20263;-64
2022/08/07 04:05:14;;;;;;;14.30;8.80;;;;;;;26.03;100.00;101103.31;2066091;28;20182;-65
2022/08/07 04:06:15;;;;;;;9.57;7.80;;;;;;;25.90;100.00;101083.25;2064682;28;20202;-64
2022/08/07 04:07:17;;;;;;;10.20;8.17;;;;;;;25.93;100.00;101090.75;2064763;28;20326;-64
2022/08/07 04:08:17;;;;;;;12.53;8.13;;;;;;;25.61;100.00;101043.47;2065036;28;20660;-64
2022/08/07 04:09:19;;;;;;;12.73;8.17;;;;;;;26.04;100.00;101104.88;2065152;28;20556;-64
2022/08/07 04:10:20;;;;;;;16.60;9.30;;;;;;;26.08;100.00;101091.16;2058381;28;20190;-64
2022/08/07 04:11:21;;;;;;;15.23;9.20;;;;;;;25.79;100.00;101054.94;2063625;28;20676;-64
2022/08/07 04:12:22;;;;;;;13.80;8.53;;;;;;;26.00;100.00;101072.38;2072378;28;20173;-64
2022/08/07 04:13:24;;;;;;;20.30;8.60;;;;;;;26.16;100.00;101091.34;2065216;28;20182;-64
2022/08/07 04:14:26;;;;;;;15.07;9.63;;;;;;;25.81;100.00;101041.00;2071970;28;20268;-65
2022/08/07 04:15:27;;;;;;;16.90;8.40;;;;;;;26.22;100.00;101101.38;2066746;28;20686;-64
2022/08/07 04:16:29;;;;;;;10.87;8.27;;;;;;;25.92;100.00;101054.34;2064498;28;20575;-64
2022/08/07 04:17:29;;;;;;;10.30;8.63;;;;;;;26.23;100.00;101096.44;2064558;28;20205;-64
2022/08/07 04:18:30;;;;;;;8.93;7.50;;;;;;;26.26;100.00;101101.84;2064842;28;20683;-65
2022/08/07 04:19:31;;;;;;;9.40;7.70;;;;;;;26.25;100.00;101102.38;2064821;28;20179;-64
2022/08/07 04:20:32;;;;;;;10.53;8.40;;;;;;;25.98;100.00;101052.25;2066085;28;20181;-64
2022/08/07 04:21:32;;;;;;;11.00;8.47;;;;;;;26.30;100.00;101098.72;2072942;28;20223;-64
2022/08/07 04:22:33;;;;;;;11.83;8.00;;;;;;;26.30;100.00;101104.41;2080717;28;20235;-64
2022/08/07 04:23:34;;;;;;;15.83;8.10;;;;;;;25.94;100.00;101055.38;2067033;28;20190;-64
2022/08/07 04:24:36;;;;;;;14.83;8.00;;;;;;;26.26;100.00;101107.50;2062278;28;20739;-64
2022/08/07 04:25:37;;;;;;;16.10;8.30;;;;;;;26.13;100.00;101104.53;2064302;28;20205;-64
2022/08/07 04:26:38;;;;;;;75.70;9.83;;;;;;;26.21;100.00;101110.41;2068981;28;20194;-64
2022/08/07 04:27:40;;;;;;;10.93;8.00;;;;;;;26.22;100.00;101109.13;2057302;28;20228;-64
2022/08/07 04:28:41;;;;;;;10.33;7.03;;;;;;;26.19;100.00;101105.25;2063004;28;20188;-64
2022/08/07 04:29:43;;;;;;;12.27;8.50;;;;;;;26.22;100.00;101106.28;2065197;28;20170;-64
2022/08/07 04:30:47;;;;;;;13.37;8.30;;;;;;;26.17;100.00;101112.78;2073265;28;20178;-65
2022/08/07 04:31:48;;;;;;;11.07;8.00;;;;;;;25.95;100.00;101093.81;2056388;28;20195;-65
2022/08/07 04:32:49;;;;;;;14.00;8.43;;;;;;;26.15;100.00;101121.81;2055727;28;20198;-64
2022/08/07 04:33:50;;;;;;;15.17;8.40;;;;;;;26.16;100.00;101117.66;2061875;28;20209;-65
2022/08/07 04:34:51;;;;;;;12.67;8.00;;;;;;;26.10;100.00;101110.50;2064140;28;20190;-64
2022/08/07 04:35:52;;;;;;;12.43;8.77;;;;;;;26.13;100.00;101120.81;2076016;28;20726;-65
2022/08/07 04:36:53;;;;;;;12.57;8.17;;;;;;;26.15;100.00;101124.66;2077903;28;20624;-64
2022/08/07 04:37:53;;;;;;;14.87;8.70;;;;;;;26.16;100.00;101131.13;2071197;28;20209;-64
2022/08/07 04:38:54;;;;;;;14.53;8.53;;;;;;;25.86;100.00;101090.53;2064866;28;20174;-64
2022/08/07 04:39:54;;;;;;;17.30;8.70;;;;;;;26.20;100.00;101137.28;2064946;28;20189;-65
2022/08/07 04:40:55;;;;;;;14.10;8.37;;;;;;;26.22;100.00;101132.63;2072376;28;20204;-64
2022/08/07 04:41:56;;;;;;;13.27;8.80;;;;;;;26.23;100.00;101139.84;2066293;28;20194;-64